Blythe, California
Current Conditions -  °F | °C
As of 2:52 PM on Wednesday 26 Nov 2014 (Local Time) from KBLH Reporting Station
Clear Clear  
Wind Chill: 75°   Ceiling: Unl
Heat Index: 75°   Visibility: 10mi
Dew Point: 13°   Wind: 0mph
Humidity: 9%   Direction: NA
Pressure: 30.19"   Gusts: NA
Location:  33.61°N, 114.59°W
Report Text: KBLH 262252Z AUTO 00000KT 10SM CLR 24/M11 A3019 RMK AO2 SLP221 T02391106
Loading
Personal Weather Stations






























Interactive Weather Map New forecast layout! Learn more

10-Day Weather Forecast

Advertisements
Track Severe Weather on mobile